Time;durP1;ratioP1;P1;durP2;ratioP2;P2;SDS_P1;SDS_P2;PMS_P1;PMS_P2;Temp;Humidity;BMP_temperature;BMP_pressure;BME280_temperature;BME280_humidity;BME280_pressure;Samples;Min_cycle;Max_cycle;Signal;HPM_P1;HPM_P2
2022/12/15 00:39:42;;;;;;;53.73;31.37;;;-1.00;99.90;;;;;;5019566;28;20612;-77
2022/12/15 00:42:09;;;;;;;51.90;31.80;;;-1.10;99.90;;;;;;5007419;28;20037;-77
2022/12/15 00:44:36;;;;;;;53.87;31.80;;;-1.10;99.90;;;;;;5020548;28;20038;-77
2022/12/15 00:47:02;;;;;;;54.97;32.10;;;-1.10;99.90;;;;;;5020247;28;20025;-76
2022/12/15 01:22:36;;;;;;;55.27;32.63;;;-1.00;99.90;;;;;;5019679;28;20045;-77
2022/12/15 01:25:02;;;;;;;53.00;31.97;;;-1.00;99.90;;;;;;5020004;28;20029;-77
2022/12/15 01:27:28;;;;;;;55.17;31.97;;;-1.00;99.90;;;;;;5020097;28;20060;-77
2022/12/15 01:29:53;;;;;;;54.23;33.13;;;-1.10;99.90;;;;;;5005912;28;20104;-77
2022/12/15 01:32:19;;;;;;;51.80;32.47;;;-1.00;99.90;;;;;;5019643;28;20030;-77
2022/12/15 01:34:45;;;;;;;58.83;34.20;;;-1.00;99.90;;;;;;5018998;28;20817;-77
2022/12/15 01:37:10;;;;;;;57.37;34.67;;;-1.00;99.90;;;;;;5019888;28;20025;-77
2022/12/15 01:42:20;;;;;;;66.47;40.13;;;-1.00;99.90;;;;;;5019462;28;20040;-77
2022/12/15 01:44:49;;;;;;;68.13;40.97;;;-1.00;99.90;;;;;;5020304;28;20831;-76
2022/12/15 01:47:16;;;;;;;70.17;42.90;;;-1.00;99.90;;;;;;5019478;28;20056;-76
2022/12/15 01:49:42;;;;;;;61.97;37.73;;;-1.00;99.90;;;;;;5022231;28;20793;-76
2022/12/15 01:52:09;;;;;;;61.00;36.33;;;-1.00;99.90;;;;;;5023526;28;20151;-76
2022/12/15 01:54:41;;;;;;;62.63;37.73;;;-1.00;99.90;;;;;;5023227;28;20017;-76
2022/12/15 01:57:13;;;;;;;58.83;34.67;;;-1.00;99.90;;;;;;5023895;28;20042;-76
2022/12/15 01:59:45;;;;;;;57.07;33.03;;;-1.00;99.90;;;;;;5021815;28;20489;-76
2022/12/15 02:02:13;;;;;;;54.97;32.50;;;-1.00;99.90;;;;;;5023258;28;20030;-76
2022/12/15 02:04:40;;;;;;;54.20;30.70;;;-1.00;99.90;;;;;;5023255;28;20105;-76
2022/12/15 02:07:09;;;;;;;61.40;34.63;;;-1.00;99.90;;;;;;5023177;28;20041;-76
2022/12/15 02:09:35;;;;;;;52.00;29.90;;;-1.10;99.90;;;;;;5023601;28;20029;-76
2022/12/15 02:12:06;;;;;;;51.67;30.57;;;-1.10;99.90;;;;;;5022645;28;20037;-76
2022/12/15 02:15:05;;;;;;;50.50;29.77;;;-1.10;99.90;;;;;;5023047;28;20026;-76
2022/12/15 02:17:53;;;;;;;50.27;30.30;;;-1.10;99.90;;;;;;5022628;28;20045;-76
2022/12/15 02:20:47;;;;;;;51.33;31.40;;;-1.10;99.90;;;;;;5023049;28;20683;-76
2022/12/15 02:23:45;;;;;;;49.23;29.20;;;-1.20;99.90;;;;;;5010866;28;20025;-76
2022/12/15 02:26:22;;;;;;;51.10;29.80;;;-1.10;99.90;;;;;;4981276;28;20032;-76
2022/12/15 02:29:21;;;;;;;43.13;28.33;;;-1.20;99.90;;;;;;5022400;28;20032;-76
2022/12/15 02:32:03;;;;;;;47.83;29.00;;;-1.20;99.90;;;;;;5022277;28;20029;-76
2022/12/15 02:34:43;;;;;;;46.73;28.83;;;-1.10;99.90;;;;;;5010102;28;20021;-76
2022/12/15 02:37:15;;;;;;;45.80;27.67;;;-1.10;99.90;;;;;;5021908;28;20024;-76
2022/12/15 02:39:40;;;;;;;46.27;28.17;;;-1.20;99.90;;;;;;5009918;28;20017;-76
2022/12/15 02:42:11;;;;;;;51.50;29.50;;;-1.20;99.90;;;;;;5022398;28;20025;-76
2022/12/15 02:44:56;;;;;;;45.63;27.93;;;-1.10;99.90;;;;;;5020290;28;20033;-76
2022/12/15 02:47:50;;;;;;;49.27;29.00;;;-1.10;99.90;;;;;;5022489;28;21471;-76
2022/12/15 02:50:35;;;;;;;46.90;29.13;;;-1.10;99.90;;;;;;5022101;28;20112;-76
2022/12/15 02:53:06;;;;;;;47.93;29.80;;;-1.10;99.90;;;;;;5022117;28;20756;-76
2022/12/15 02:55:50;;;;;;;51.57;30.50;;;-1.10;99.90;;;;;;5022021;28;20450;-76
2022/12/15 02:58:43;;;;;;;49.70;30.50;;;-1.10;99.90;;;;;;5022404;28;20027;-76
2022/12/15 03:01:37;;;;;;;44.93;27.53;;;-1.20;99.90;;;;;;5006521;28;20041;-76
2022/12/15 03:04:07;;;;;;;48.23;28.50;;;-1.10;99.90;;;;;;5009547;28;20029;-76
2022/12/15 03:06:32;;;;;;;48.27;29.37;;;-1.10;99.90;;;;;;5022148;28;20053;-76
2022/12/15 03:08:58;;;;;;;52.17;30.87;;;-1.10;99.90;;;;;;5021962;28;20092;-76
2022/12/15 03:11:24;;;;;;;53.07;30.40;;;-1.10;99.90;;;;;;5022026;28;20036;-76
2022/12/15 03:13:50;;;;;;;56.60;32.10;;;-1.10;99.90;;;;;;5022189;28;20049;-76
2022/12/15 03:16:15;;;;;;;50.40;29.40;;;-1.20;99.90;;;;;;5021721;28;20029;-76
2022/12/15 03:18:41;;;;;;;51.63;30.40;;;-1.20;99.90;;;;;;5021554;28;20088;-76
2022/12/15 03:21:07;;;;;;;53.70;30.60;;;-1.20;99.90;;;;;;5009585;28;20524;-76
2022/12/15 03:23:32;;;;;;;56.70;32.37;;;-1.20;99.90;;;;;;5021747;28;20509;-76
2022/12/15 03:25:58;;;;;;;56.07;32.10;;;-1.20;99.90;;;;;;5009129;28;20061;-75
2022/12/15 03:28:24;;;;;;;56.87;32.60;;;-1.30;99.90;;;;;;5021470;28;20021;-76
2022/12/15 03:30:49;;;;;;;58.07;32.27;;;-1.30;99.90;;;;;;5020671;28;20057;-76
2022/12/15 03:33:15;;;;;;;56.90;31.73;;;-1.30;99.90;;;;;;5021126;28;20261;-76
2022/12/15 03:35:41;;;;;;;54.07;32.23;;;-1.30;99.90;;;;;;5020977;28;20056;-76
2022/12/15 03:38:06;;;;;;;52.93;30.87;;;-1.30;99.90;;;;;;5021395;28;21364;-76
2022/12/15 03:40:32;;;;;;;56.93;31.60;;;-1.30;99.90;;;;;;5009486;28;20184;-76
2022/12/15 03:42:58;;;;;;;52.53;31.83;;;-1.30;99.90;;;;;;5021086;28;20030;-76
2022/12/15 03:45:25;;;;;;;53.27;31.50;;;-1.30;99.90;;;;;;5008802;28;20032;-76
2022/12/15 03:47:52;;;;;;;53.23;31.70;;;-1.30;99.90;;;;;;5021453;28;20122;-76
2022/12/15 03:50:20;;;;;;;54.27;31.50;;;-1.30;99.90;;;;;;5021372;28;20085;-76
2022/12/15 03:52:56;;;;;;;57.93;33.37;;;-1.30;99.90;;;;;;5039774;28;20026;-76
2022/12/15 03:55:22;;;;;;;57.30;32.73;;;-1.30;99.90;;;;;;5020710;28;20108;-76
2022/12/15 03:57:48;;;;;;;59.23;35.07;;;-1.30;99.90;;;;;;5020855;28;20021;-79
2022/12/15 04:00:14;;;;;;;55.43;32.40;;;-1.30;99.90;;;;;;5020599;28;20017;-79
2022/12/15 04:02:41;;;;;;;59.13;34.00;;;-1.30;99.90;;;;;;5020994;28;20033;-79
2022/12/15 04:05:11;;;;;;;59.07;34.27;;;-1.40;99.90;;;;;;5007572;28;20553;-79
2022/12/15 04:07:36;;;;;;;58.13;34.47;;;-1.40;99.90;;;;;;5019737;28;20049;-79
2022/12/15 04:10:02;;;;;;;57.37;34.33;;;-1.40;99.90;;;;;;5020740;28;21407;-79
2022/12/15 04:12:28;;;;;;;58.10;33.00;;;-1.40;99.90;;;;;;5020851;28;20133;-79
2022/12/15 04:14:53;;;;;;;61.53;34.80;;;-1.40;99.90;;;;;;5021082;28;20477;-79
2022/12/15 04:17:19;;;;;;;57.63;33.67;;;-1.40;99.90;;;;;;5020772;28;20035;-79
2022/12/15 04:22:29;;;;;;;66.17;34.23;;;-1.50;99.90;;;;;;5020435;28;20052;-79
2022/12/15 05:33:21;;;;;;;62.83;36.47;;;-1.70;99.90;;;;;;5030812;28;20045;-76
2022/12/15 05:35:47;;;;;;;73.67;40.40;;;-1.70;99.90;;;;;;5032173;28;20025;-75
2022/12/15 05:38:12;;;;;;;74.37;39.90;;;-1.70;99.90;;;;;;5029467;28;20044;-77
2022/12/15 05:40:38;;;;;;;66.47;37.10;;;-1.70;99.90;;;;;;5025245;28;20045;-79
2022/12/15 05:43:03;;;;;;;60.57;36.43;;;-1.70;99.90;;;;;;5023215;28;20631;-80
2022/12/15 05:45:29;;;;;;;62.43;36.70;;;-1.60;99.90;;;;;;5024069;28;20045;-79
2022/12/15 05:47:55;;;;;;;67.57;36.80;;;-1.60;99.90;;;;;;5024142;28;20033;-79
2022/12/15 05:50:21;;;;;;;62.87;36.97;;;-1.60;99.90;;;;;;5016317;28;20068;-77
2022/12/15 05:52:49;;;;;;;66.73;37.67;;;-1.60;99.90;;;;;;5029961;28;20029;-77
2022/12/15 05:55:15;;;;;;;69.10;40.17;;;-1.60;99.90;;;;;;5017920;28;20112;-77
2022/12/15 05:57:41;;;;;;;68.07;37.07;;;-1.70;99.90;;;;;;5029710;28;20036;-77
2022/12/15 06:00:07;;;;;;;70.20;37.87;;;-1.70;99.90;;;;;;5031043;28;20036;-77
2022/12/15 06:02:33;;;;;;;66.60;35.83;;;-1.70;99.90;;;;;;5029923;28;20064;-77
2022/12/15 06:04:58;;;;;;;69.03;37.40;;;-1.70;99.90;;;;;;5018658;28;20071;-77
2022/12/15 06:07:24;;;;;;;65.20;35.60;;;-1.70;99.90;;;;;;5029229;28;20057;-77
2022/12/15 06:09:50;;;;;;;70.33;37.47;;;-1.70;99.90;;;;;;5027093;28;20041;-77
2022/12/15 06:12:15;;;;;;;67.53;36.00;;;-1.70;99.90;;;;;;5015888;28;20025;-78
2022/12/15 06:14:41;;;;;;;66.40;35.97;;;-1.80;99.90;;;;;;5024645;28;20033;-87
2022/12/15 06:17:07;;;;;;;62.97;35.50;;;-1.80;99.90;;;;;;5026251;28;20493;-85
2022/12/15 06:19:32;;;;;;;65.17;35.43;;;-1.80;99.90;;;;;;5025705;28;20025;-79
2022/12/15 06:21:58;;;;;;;66.53;36.27;;;-1.80;99.90;;;;;;5028338;28;20537;-76
2022/12/15 06:24:24;;;;;;;64.47;35.13;;;-1.80;99.90;;;;;;5029973;28;20176;-77
2022/12/15 06:26:50;;;;;;;65.07;34.77;;;-1.80;99.90;;;;;;5028002;28;20030;-77
2022/12/15 06:29:16;;;;;;;64.50;35.43;;;-1.80;99.90;;;;;;5032112;28;20033;-77
2022/12/15 06:31:42;;;;;;;130.07;56.63;;;-1.80;99.90;;;;;;5029618;28;20029;-77
2022/12/15 06:34:11;;;;;;;64.10;35.07;;;-1.80;99.90;;;;;;5028477;28;20908;-76
2022/12/15 06:36:37;;;;;;;77.23;37.80;;;-1.80;99.90;;;;;;5026654;28;20021;-77
2022/12/15 06:39:05;;;;;;;68.77;35.03;;;-1.80;99.90;;;;;;5012346;28;20029;-77
2022/12/15 06:41:31;;;;;;;60.83;34.87;;;-1.80;99.90;;;;;;5028178;28;21482;-77
2022/12/15 06:43:58;;;;;;;172.07;61.13;;;-1.80;99.90;;;;;;5024926;28;20037;-77
2022/12/15 06:46:25;;;;;;;70.00;36.73;;;-1.80;99.90;;;;;;5024056;28;20191;-77
2022/12/15 06:48:52;;;;;;;80.77;41.63;;;-1.80;99.90;;;;;;5026738;28;20584;-77
2022/12/15 06:51:18;;;;;;;69.87;38.87;;;-1.80;99.90;;;;;;5024776;28;20147;-77
2022/12/15 06:53:47;;;;;;;70.10;39.27;;;-1.80;99.90;;;;;;5022903;28;20034;-78
2022/12/15 06:56:23;;;;;;;69.07;36.87;;;-1.90;99.90;;;;;;5021038;28;20441;-78
2022/12/15 06:58:50;;;;;;;71.03;37.73;;;-1.90;99.90;;;;;;5024735;28;21372;-78
2022/12/15 07:01:17;;;;;;;77.40;38.90;;;-1.90;99.90;;;;;;5022459;28;20071;-78
2022/12/15 07:03:43;;;;;;;83.93;39.97;;;-1.90;99.90;;;;;;5025043;28;20037;-78
2022/12/15 07:06:12;;;;;;;80.50;40.87;;;-1.80;99.90;;;;;;5021677;28;20049;-78
2022/12/15 07:08:37;;;;;;;75.50;40.30;;;-1.80;99.90;;;;;;5023182;28;20157;-78
2022/12/15 07:11:09;;;;;;;77.07;39.30;;;-1.80;99.90;;;;;;5022771;28;20811;-79
2022/12/15 07:13:34;;;;;;;71.00;37.30;;;-1.80;99.90;;;;;;5027746;28;20501;-79
2022/12/15 07:16:02;;;;;;;70.40;38.27;;;-1.80;99.90;;;;;;5027985;28;20029;-78
2022/12/15 07:18:28;;;;;;;68.03;37.63;;;-1.80;99.90;;;;;;5027549;28;20307;-79
2022/12/15 07:20:54;;;;;;;66.53;35.53;;;-1.80;99.90;;;;;;5028753;28;20148;-79
2022/12/15 07:23:20;;;;;;;72.20;38.60;;;-1.80;99.90;;;;;;5016035;28;20777;-78
2022/12/15 07:25:46;;;;;;;72.50;38.43;;;-1.80;99.90;;;;;;5016493;28;20030;-78
2022/12/15 07:28:12;;;;;;;66.03;35.17;;;-1.80;99.90;;;;;;5029697;28;20029;-74
2022/12/15 07:30:37;;;;;;;64.70;35.47;;;-1.80;99.90;;;;;;5030653;28;20030;-78
2022/12/15 07:33:04;;;;;;;64.83;36.23;;;-1.70;99.90;;;;;;5021556;28;20140;-78
2022/12/15 07:35:30;;;;;;;67.73;37.13;;;-1.70;99.90;;;;;;5023960;28;20032;-78
2022/12/15 07:37:56;;;;;;;68.53;36.77;;;-1.70;99.90;;;;;;5021563;28;20030;-78
2022/12/15 07:40:21;;;;;;;86.97;47.40;;;-1.70;99.90;;;;;;5022206;28;20175;-78
2022/12/15 07:42:47;;;;;;;65.33;36.57;;;-1.70;99.90;;;;;;5022058;28;20057;-78
2022/12/15 07:45:13;;;;;;;66.73;38.90;;;-1.70;99.90;;;;;;5024259;28;20049;-78
2022/12/15 07:47:39;;;;;;;70.57;40.13;;;-1.70;99.90;;;;;;5022212;28;20060;-83
2022/12/15 07:50:05;;;;;;;71.13;39.53;;;-1.60;99.90;;;;;;5011785;28;20120;-79
2022/12/15 07:52:31;;;;;;;74.03;43.97;;;-1.60;99.90;;;;;;5030560;28;20030;-79
2022/12/15 07:54:56;;;;;;;65.43;36.77;;;-1.60;99.90;;;;;;5021920;28;20025;-78
2022/12/15 07:57:22;;;;;;;64.70;36.03;;;-1.60;99.90;;;;;;5008330;28;20037;-78
2022/12/15 07:59:49;;;;;;;63.17;35.37;;;-1.50;99.90;;;;;;5020428;28;20029;-78
2022/12/15 08:02:15;;;;;;;60.40;32.47;;;-1.50;99.90;;;;;;5005913;28;20045;-78
2022/12/15 08:04:40;;;;;;;58.47;31.97;;;-1.50;99.90;;;;;;5010172;28;20044;-78
2022/12/15 08:07:06;;;;;;;60.40;33.73;;;-1.40;99.90;;;;;;5010474;28;20053;-78
2022/12/15 08:09:32;;;;;;;55.17;32.03;;;-1.40;99.90;;;;;;5009821;28;20022;-78
2022/12/15 08:11:57;;;;;;;56.70;33.07;;;-1.30;99.90;;;;;;5029775;28;20194;-78
2022/12/15 08:14:23;;;;;;;62.10;34.00;;;-1.30;99.90;;;;;;5013570;28;20029;-78
2022/12/15 08:16:49;;;;;;;60.23;34.20;;;-1.20;99.90;;;;;;5032109;28;20446;-78
2022/12/15 08:19:16;;;;;;;60.07;36.70;;;-1.20;99.90;;;;;;5013588;28;21538;-78
2022/12/15 08:21:47;;;;;;;60.03;34.30;;;-1.20;99.90;;;;;;5012448;28;20025;-78
2022/12/15 08:24:13;;;;;;;62.70;34.80;;;-1.20;99.90;;;;;;5011588;28;20025;-78
2022/12/15 08:26:40;;;;;;;58.70;34.53;;;-1.20;99.90;;;;;;5026268;28;20034;-78
2022/12/15 08:29:09;;;;;;;63.83;36.30;;;-1.10;99.90;;;;;;5027501;28;20033;-78
2022/12/15 08:31:35;;;;;;;63.40;37.00;;;-1.10;99.90;;;;;;5028759;28;20501;-78
2022/12/15 08:34:04;;;;;;;236.57;119.90;;;-1.10;99.90;;;;;;5026749;28;20104;-79
2022/12/15 08:36:30;;;;;;;119.70;78.53;;;-1.20;99.90;;;;;;5028738;28;20059;-78
2022/12/15 08:38:57;;;;;;;63.57;37.00;;;-1.20;99.90;;;;;;5011395;28;20478;-78
2022/12/15 08:41:25;;;;;;;60.57;35.53;;;-1.20;99.90;;;;;;5029636;28;20048;-78
2022/12/15 08:43:52;;;;;;;61.73;35.20;;;-1.20;99.90;;;;;;5030994;28;20056;-78
2022/12/15 08:46:23;;;;;;;60.50;34.37;;;-1.20;99.90;;;;;;5014522;28;20029;-78
2022/12/15 08:48:49;;;;;;;62.67;37.17;;;-1.20;99.90;;;;;;5029299;28;20025;-78
2022/12/15 08:51:15;;;;;;;63.87;35.20;;;-1.20;99.90;;;;;;5031573;28;20071;-78
2022/12/15 08:53:41;;;;;;;64.97;34.47;;;-1.20;99.90;;;;;;5030727;28;21325;-78
2022/12/15 08:56:16;;;;;;;61.40;34.77;;;-1.20;99.90;;;;;;5032037;28;20082;-78
2022/12/15 08:58:42;;;;;;;64.90;34.83;;;-1.10;99.90;;;;;;5029504;28;20025;-78
2022/12/15 09:01:12;;;;;;;56.13;33.60;;;-1.10;99.90;;;;;;5030909;28;20029;-77
2022/12/15 09:03:39;;;;;;;62.87;36.17;;;-1.10;99.90;;;;;;5028022;28;20028;-78
2022/12/15 09:06:08;;;;;;;61.43;35.67;;;-1.00;99.90;;;;;;5029893;28;20427;-78
2022/12/15 09:08:34;;;;;;;65.80;38.73;;;-1.10;99.90;;;;;;5027687;28;20101;-78
2022/12/15 09:11:00;;;;;;;62.47;35.50;;;-1.10;99.90;;;;;;5023499;28;20478;-78
2022/12/15 09:13:26;;;;;;;61.30;35.37;;;-1.00;99.90;;;;;;5023489;28;20029;-79
2022/12/15 09:16:00;;;;;;;58.07;34.10;;;-1.00;99.90;;;;;;5024179;28;20052;-79
2022/12/15 09:18:26;;;;;;;70.97;41.27;;;-1.00;99.90;;;;;;5011313;28;20109;-77
2022/12/15 09:20:52;;;;;;;85.80;48.70;;;-1.00;99.90;;;;;;5025676;28;20022;-77
2022/12/15 09:23:18;;;;;;;83.53;65.37;;;-1.00;99.90;;;;;;5008910;28;20029;-77
2022/12/15 09:25:45;;;;;;;78.53;47.23;;;-1.00;99.90;;;;;;5023743;28;20026;-77
2022/12/15 09:28:12;;;;;;;87.53;49.13;;;-1.00;99.90;;;;;;5023556;28;20476;-77
2022/12/15 09:30:37;;;;;;;106.00;64.50;;;-1.00;99.90;;;;;;5023459;28;20026;-77
2022/12/15 09:33:03;;;;;;;66.73;39.83;;;-1.10;99.90;;;;;;5024540;28;20033;-78
2022/12/15 09:35:29;;;;;;;64.60;36.67;;;-1.00;99.90;;;;;;5026355;28;20429;-77
2022/12/15 09:37:56;;;;;;;64.33;39.37;;;-1.10;99.90;;;;;;5013720;28;20067;-77
2022/12/15 09:40:21;;;;;;;73.60;43.33;;;-1.00;99.90;;;;;;5021682;28;20152;-77
2022/12/15 09:42:52;;;;;;;68.50;39.93;;;-1.00;99.90;;;;;;5023621;28;20025;-77
2022/12/15 09:45:25;;;;;;;88.03;52.10;;;-1.00;99.90;;;;;;5024680;28;20029;-90
2022/12/15 09:48:05;;;;;;;75.43;44.97;;;-1.00;99.90;;;;;;5024569;28;20022;-77
2022/12/15 09:50:37;;;;;;;69.20;40.53;;;-1.00;99.90;;;;;;5012528;28;20018;-77
2022/12/15 09:53:07;;;;;;;69.70;40.43;;;-1.00;99.90;;;;;;5024199;28;20037;-79
2022/12/15 09:55:33;;;;;;;102.63;53.87;;;-0.90;99.90;;;;;;5019333;28;20490;-80
2022/12/15 09:58:07;;;;;;;184.30;89.93;;;-0.90;99.90;;;;;;5007980;28;20104;-78
2022/12/15 10:00:40;;;;;;;155.30;71.93;;;-0.80;99.90;;;;;;5020753;28;20028;-78
2022/12/15 10:03:27;;;;;;;244.80;109.83;;;-0.80;99.90;;;;;;5003952;28;20053;-78
2022/12/15 10:05:58;;;;;;;69.73;41.63;;;-0.70;99.90;;;;;;5020426;28;20052;-79
2022/12/15 10:08:29;;;;;;;96.90;46.50;;;-0.70;99.90;;;;;;5021427;28;20040;-79
2022/12/15 10:11:00;;;;;;;67.57;38.47;;;-0.70;99.90;;;;;;5021037;28;20136;-79
2022/12/15 10:13:46;;;;;;;75.70;38.57;;;-0.60;99.90;;;;;;5022195;28;20036;-79
2022/12/15 10:16:27;;;;;;;65.88;37.22;;;-0.60;99.90;;;;;;5023355;28;20045;-78
2022/12/15 10:19:30;;;;;;;70.57;37.43;;;-0.50;99.90;;;;;;5021759;28;20708;-77
2022/12/15 10:21:57;;;;;;;69.83;37.73;;;-0.40;99.90;;;;;;4988988;28;20045;-76
2022/12/15 10:24:26;;;;;;;65.13;37.93;;;-0.40;99.90;;;;;;5021304;28;20037;-76
2022/12/15 10:27:04;;;;;;;62.40;37.33;;;-0.40;99.90;;;;;;5005724;28;21443;-71
2022/12/15 10:29:42;;;;;;;68.00;38.70;;;-0.30;99.90;;;;;;5022420;28;20040;-76
2022/12/15 10:32:28;;;;;;;67.73;38.57;;;-0.20;99.90;;;;;;5019528;28;20771;-76
2022/12/15 10:34:54;;;;;;;74.77;39.60;;;-0.20;99.90;;;;;;5020952;28;20038;-76
2022/12/15 10:37:20;;;;;;;80.33;44.03;;;-0.10;99.90;;;;;;5008460;28;20056;-76
2022/12/15 10:39:48;;;;;;;69.40;39.87;;;0.00;99.90;;;;;;5025143;28;20066;-76
2022/12/15 10:42:16;;;;;;;65.73;36.60;;;0.00;99.90;;;;;;5021345;28;20033;-78
2022/12/15 10:44:47;;;;;;;66.63;36.77;;;0.00;99.90;;;;;;5012774;28;20025;-77
2022/12/15 10:47:21;;;;;;;66.77;37.70;;;0.00;99.90;;;;;;5028101;28;20056;-78
2022/12/15 10:49:48;;;;;;;62.60;36.07;;;0.10;99.90;;;;;;5023611;28;20029;-78
2022/12/15 10:52:21;;;;;;;59.70;37.20;;;0.10;99.90;;;;;;5022425;28;20030;-78
2022/12/15 10:54:49;;;;;;;62.10;37.07;;;0.10;99.90;;;;;;5022555;28;20021;-78
2022/12/15 10:57:26;;;;;;;66.23;38.03;;;0.20;99.90;;;;;;5021094;28;20029;-78
2022/12/15 10:59:53;;;;;;;59.13;35.73;;;0.20;99.90;;;;;;5004846;28;20091;-78
2022/12/15 11:02:32;;;;;;;68.13;37.23;;;0.20;99.90;;;;;;5021819;28;20035;-76
2022/12/15 11:05:15;;;;;;;60.27;35.37;;;0.20;99.90;;;;;;5021561;28;20025;-76
2022/12/15 11:07:44;;;;;;;60.20;35.43;;;0.20;99.90;;;;;;5003796;28;20049;-76
2022/12/15 11:12:50;;;;;;;59.50;35.50;;;0.30;99.90;;;;;;5021161;28;20528;-76
2022/12/15 11:13:20;;;;;;;56.63;34.53;;;0.20;99.90;;;;;;5021586;28;20041;-76
2022/12/15 11:15:50;;;;;;;63.97;35.53;;;0.30;99.90;;;;;;5020329;28;20747;-76
2022/12/15 11:18:37;;;;;;;56.43;33.87;;;0.30;99.90;;;;;;5020170;28;21329;-76
2022/12/15 11:21:16;;;;;;;57.00;34.93;;;0.30;99.90;;;;;;5019917;28;20374;-76
2022/12/15 11:24:35;;;;;;;60.57;36.13;;;0.30;99.90;;;;;;5020570;28;20025;-76
2022/12/15 11:27:27;;;;;;;59.60;34.87;;;0.20;99.90;;;;;;4971273;28;20182;-76
2022/12/15 11:29:58;;;;;;;56.00;33.63;;;0.20;99.90;;;;;;5020235;28;20021;-76
2022/12/15 11:32:27;;;;;;;53.03;33.40;;;0.20;99.90;;;;;;5021074;28;20022;-75
2022/12/15 11:34:54;;;;;;;72.17;44.27;;;0.20;99.90;;;;;;5019655;28;20030;-74
2022/12/15 11:37:42;;;;;;;57.00;33.87;;;0.20;99.90;;;;;;5021008;28;20067;-75
2022/12/15 11:40:35;;;;;;;59.13;36.63;;;0.20;99.90;;;;;;5019813;28;20021;-75
2022/12/15 11:43:18;;;;;;;60.77;35.90;;;0.20;99.90;;;;;;5020733;28;20030;-75
2022/12/15 11:46:06;;;;;;;55.47;34.57;;;0.20;99.90;;;;;;5035459;28;20033;-74
2022/12/15 11:49:19;;;;;;;65.87;39.37;;;0.20;99.90;;;;;;5019920;28;20029;-77
2022/12/15 11:52:14;;;;;;;68.47;38.97;;;0.10;99.90;;;;;;5013099;28;21420;-76
2022/12/15 11:55:01;;;;;;;154.27;76.90;;;0.00;99.90;;;;;;4986228;28;20042;-77
2022/12/15 11:57:30;;;;;;;106.70;58.67;;;0.00;99.90;;;;;;5017782;28;20025;-78
2022/12/15 12:00:14;;;;;;;66.90;39.87;;;0.00;99.90;;;;;;5009648;28;20188;-77
2022/12/15 12:03:37;;;;;;;62.30;36.40;;;-0.10;99.90;;;;;;5021576;28;20017;-77
2022/12/15 12:06:24;;;;;;;60.87;35.53;;;-0.10;99.90;;;;;;4942038;28;20046;-77
2022/12/15 12:09:06;;;;;;;58.10;34.63;;;-0.10;99.90;;;;;;4942993;28;20531;-77
2022/12/15 12:11:55;;;;;;;63.30;37.57;;;-0.10;99.90;;;;;;4996242;28;20065;-77
2022/12/15 12:14:35;;;;;;;65.10;37.50;;;-0.10;99.90;;;;;;5019701;28;20033;-77
2022/12/15 12:17:18;;;;;;;63.23;37.30;;;-0.20;99.90;;;;;;5020151;28;20116;-77
2022/12/15 12:19:58;;;;;;;61.53;37.43;;;-0.20;99.90;;;;;;5020034;28;20044;-77
2022/12/15 12:22:39;;;;;;;62.20;36.77;;;-0.30;99.90;;;;;;5003024;28;20052;-77
2022/12/15 12:25:25;;;;;;;61.33;37.97;;;-0.30;99.90;;;;;;5019728;28;20206;-77
2022/12/15 12:27:56;;;;;;;67.60;38.87;;;-0.30;99.90;;;;;;5024667;28;20055;-76
2022/12/15 12:30:26;;;;;;;68.30;39.33;;;-0.20;99.90;;;;;;5021949;28;20044;-82
2022/12/15 12:33:01;;;;;;;73.07;40.27;;;-0.30;99.90;;;;;;5020845;28;20489;-71
2022/12/15 12:35:47;;;;;;;65.13;38.08;;;-0.30;99.90;;;;;;5019895;28;20966;-77
2022/12/15 12:38:13;;;;;;;67.70;37.30;;;-0.40;99.90;;;;;;5008047;28;20025;-77
2022/12/15 12:41:14;;;;;;;68.00;39.27;;;-0.30;99.90;;;;;;5024717;28;20099;-77
2022/12/15 12:43:55;;;;;;;64.87;37.77;;;-0.40;99.90;;;;;;4924350;29;20031;-77
2022/12/15 12:46:32;;;;;;;65.27;37.67;;;-0.40;99.90;;;;;;5011005;28;20041;-77
2022/12/15 12:49:21;;;;;;;63.70;37.20;;;-0.50;99.90;;;;;;5020356;28;20034;-76
2022/12/15 12:52:02;;;;;;;62.43;36.00;;;-0.50;99.90;;;;;;5005383;28;20516;-75
2022/12/15 12:54:37;;;;;;;65.97;38.60;;;-0.50;99.90;;;;;;5019920;28;20644;-76
2022/12/15 12:57:33;;;;;;;71.53;39.40;;;-0.50;99.90;;;;;;5020394;28;20029;-75
2022/12/15 13:00:17;;;;;;;69.00;39.93;;;-0.50;99.90;;;;;;5021796;28;20056;-76
2022/12/15 13:02:47;;;;;;;63.87;37.33;;;-0.50;99.90;;;;;;5005070;28;20362;-75
2022/12/15 13:05:32;;;;;;;65.80;38.90;;;-0.50;99.90;;;;;;5007162;28;20071;-76
2022/12/15 13:08:09;;;;;;;65.20;36.87;;;-0.40;99.90;;;;;;5006174;28;20049;-70
2022/12/15 13:10:40;;;;;;;70.47;40.87;;;-0.50;99.90;;;;;;5021139;28;20049;-69
2022/12/15 13:13:28;;;;;;;74.50;40.80;;;-0.50;99.90;;;;;;5020435;28;20082;-78
2022/12/15 13:16:15;;;;;;;67.00;38.50;;;-0.50;99.90;;;;;;5022979;28;20053;-75
2022/12/15 13:19:03;;;;;;;67.53;39.43;;;-0.60;99.90;;;;;;5020396;28;20029;-76
2022/12/15 13:21:43;;;;;;;70.13;37.73;;;-0.60;99.90;;;;;;5024311;28;20382;-70
2022/12/15 13:24:24;;;;;;;72.17;39.57;;;-0.50;99.90;;;;;;5026569;28;20478;-83
2022/12/15 13:26:49;;;;;;;73.70;40.03;;;-0.60;99.90;;;;;;5023595;28;20982;-77
2022/12/15 13:29:20;;;;;;;81.60;42.37;;;-0.60;99.90;;;;;;5012479;28;20014;-70
2022/12/15 13:31:48;;;;;;;77.83;42.70;;;-0.60;99.90;;;;;;5028514;28;20026;-71
2022/12/15 13:34:20;;;;;;;80.27;41.90;;;-0.60;99.90;;;;;;5024247;28;20025;-70
2022/12/15 13:36:48;;;;;;;77.70;43.30;;;-0.60;99.90;;;;;;5023438;28;21338;-76
2022/12/15 13:39:16;;;;;;;84.63;45.33;;;-0.60;99.90;;;;;;5022403;28;20135;-77
2022/12/15 13:41:50;;;;;;;115.67;67.23;;;-0.70;99.90;;;;;;5010486;28;20025;-77
2022/12/15 13:44:28;;;;;;;106.57;55.23;;;-0.70;99.90;;;;;;5027407;28;20037;-76
2022/12/15 13:46:57;;;;;;;93.97;53.00;;;-0.80;99.90;;;;;;5026899;28;20021;-76
2022/12/15 13:49:31;;;;;;;87.53;44.83;;;-0.80;99.90;;;;;;5031218;28;20040;-76
2022/12/15 13:52:01;;;;;;;89.05;46.20;;;-0.80;99.90;;;;;;5029813;28;20087;-76
2022/12/15 13:54:35;;;;;;;86.50;46.00;;;-0.80;99.90;;;;;;5030202;28;20029;-77
2022/12/15 13:57:13;;;;;;;85.80;43.23;;;-0.90;99.90;;;;;;5033815;28;20036;-76
2022/12/15 13:59:39;;;;;;;84.80;42.70;;;-0.90;99.90;;;;;;5034555;28;20017;-77
2022/12/15 14:02:23;;;;;;;89.57;44.07;;;-0.90;99.90;;;;;;5028720;28;20048;-76
2022/12/15 14:05:16;;;;;;;87.07;44.40;;;-1.00;99.90;;;;;;5029005;28;20041;-77
2022/12/15 14:07:48;;;;;;;87.67;43.47;;;-1.00;99.90;;;;;;5023315;28;20132;-76
2022/12/15 14:10:21;;;;;;;103.03;52.20;;;-1.00;99.90;;;;;;5005825;28;20096;-74
2022/12/15 14:12:49;;;;;;;106.43;53.27;;;-1.00;99.90;;;;;;5018607;28;20033;-74
2022/12/15 14:15:16;;;;;;;169.43;80.43;;;-1.10;99.90;;;;;;5019447;28;20013;-74
2022/12/15 14:17:48;;;;;;;124.73;62.30;;;-1.10;99.90;;;;;;5019387;28;20070;-74
2022/12/15 14:20:20;;;;;;;92.30;46.23;;;-1.10;99.90;;;;;;5003679;28;20053;-74
2022/12/15 14:22:46;;;;;;;93.47;46.53;;;-1.10;99.90;;;;;;5020318;28;20100;-74
2022/12/15 14:25:13;;;;;;;93.10;46.57;;;-1.20;99.90;;;;;;5016745;28;20029;-74
2022/12/15 14:27:39;;;;;;;103.17;48.57;;;-1.20;99.90;;;;;;5014549;28;20125;-76
2022/12/15 14:30:14;;;;;;;96.97;48.67;;;-1.20;99.90;;;;;;5021724;28;20140;-79
2022/12/15 14:32:42;;;;;;;96.45;48.15;;;-1.20;99.90;;;;;;5024850;28;20339;-79
2022/12/15 14:35:17;;;;;;;91.73;45.53;;;-1.30;99.90;;;;;;5023874;28;20100;-79
2022/12/15 14:37:43;;;;;;;89.25;45.40;;;-1.20;99.90;;;;;;5023956;28;20049;-79
2022/12/15 14:40:16;;;;;;;89.57;45.47;;;-1.20;99.90;;;;;;5023563;28;20146;-79
2022/12/15 14:42:43;;;;;;;88.00;43.13;;;-1.20;99.90;;;;;;5023548;28;20125;-81
2022/12/15 14:45:38;;;;;;;90.00;43.60;;;-1.20;99.90;;;;;;5022897;28;20029;-80
2022/12/15 14:48:08;;;;;;;93.43;47.73;;;-1.20;99.90;;;;;;5003886;28;20152;-80
2022/12/15 14:50:35;;;;;;;96.40;49.93;;;-1.30;99.90;;;;;;5008168;28;21444;-80
2022/12/15 14:53:15;;;;;;;91.47;46.47;;;-1.20;99.90;;;;;;5021651;28;20071;-80
2022/12/15 14:55:40;;;;;;;83.47;42.40;;;-1.30;99.90;;;;;;5021024;28;20025;-80
2022/12/15 14:58:33;;;;;;;79.27;39.83;;;-1.30;99.90;;;;;;5022979;28;20040;-79
2022/12/15 15:01:00;;;;;;;87.30;43.07;;;-1.20;99.90;;;;;;5022344;28;20896;-79
2022/12/15 15:03:37;;;;;;;95.73;44.47;;;-1.20;99.90;;;;;;5008876;28;20029;-80
2022/12/15 15:06:03;;;;;;;84.27;41.23;;;-1.30;99.90;;;;;;5022408;28;20452;-79
2022/12/15 15:08:34;;;;;;;84.27;43.13;;;-1.30;99.90;;;;;;5022156;28;20029;-79
2022/12/15 15:11:18;;;;;;;86.10;43.33;;;-1.30;99.90;;;;;;5023687;28;20026;-80
2022/12/15 15:13:44;;;;;;;89.80;43.20;;;-1.30;99.90;;;;;;5021925;28;20033;-80
2022/12/15 15:16:16;;;;;;;104.40;56.57;;;-1.30;99.90;;;;;;5022480;28;21402;-79
2022/12/15 15:18:43;;;;;;;125.57;70.23;;;-1.30;99.90;;;;;;5024958;28;20029;-79